sensor_id;sensor_type;location;lat;lon;timestamp;pressure;altitude;pressure_sealevel;temperature;humidity
46174;BME280;31897;52.420;13.498;2023-07-24T00:01:35;100200;;;19.08194;29.00368
46174;BME280;31897;52.420;13.498;2023-07-24T00:04:35;100200;;;19.08226;28.89551
46174;BME280;31897;52.420;13.498;2023-07-24T00:07:36;100200;;;19.08614;28.86534
46174;BME280;31897;52.420;13.498;2023-07-24T00:10:37;100200;;;19.101;28.82884
46174;BME280;31897;52.420;13.498;2023-07-24T00:13:38;100200;;;19.12362;28.77406
46174;BME280;31897;52.420;13.498;2023-07-24T00:16:38;100200;;;19.14817;28.75528
46174;BME280;31897;52.420;13.498;2023-07-24T00:19:39;100200;;;19.16045;28.83303
46174;BME280;31897;52.420;13.498;2023-07-24T00:22:40;100200;;;19.19695;28.84394
46174;BME280;31897;52.420;13.498;2023-07-24T00:25:41;100200;;;19.22571;28.85508
46174;BME280;31897;52.420;13.498;2023-07-24T00:28:42;100200;;;19.2312;28.87295
46174;BME280;31897;52.420;13.498;2023-07-24T00:31:42;100200;;;19.22054;28.90934
46174;BME280;31897;52.420;13.498;2023-07-24T00:34:43;100200;;;19.1808;28.86847
46174;BME280;31897;52.420;13.498;2023-07-24T00:37:44;100200;;;19.14365;28.8095
46174;BME280;31897;52.420;13.498;2023-07-24T00:40:44;100200;;;19.14009;28.77956
46174;BME280;31897;52.420;13.498;2023-07-24T00:43:45;100200;;;19.11489;28.73226
46174;BME280;31897;52.420;13.498;2023-07-24T00:46:46;100200;;;19.14688;28.67117
46174;BME280;31897;52.420;13.498;2023-07-24T00:49:47;100200;;;19.18952;28.62778
46174;BME280;31897;52.420;13.498;2023-07-24T00:52:48;100200;;;19.20018;28.51324
46174;BME280;31897;52.420;13.498;2023-07-24T00:55:49;100200;;;19.15786;28.41238
46174;BME280;31897;52.420;13.498;2023-07-24T00:58:50;100200;;;19.16271;28.24392
46174;BME280;31897;52.420;13.498;2023-07-24T01:01:52;100200;;;19.19114;28.09874
46174;BME280;31897;52.420;13.498;2023-07-24T01:04:52;100200;;;19.23863;28.00702
46174;BME280;31897;52.420;13.498;2023-07-24T01:07:54;100200;;;19.25995;27.96424
46174;BME280;31897;52.420;13.498;2023-07-24T01:10:55;100200;;;19.24897;27.9646
46174;BME280;31897;52.420;13.498;2023-07-24T01:13:58;100200;;;19.26577;27.94601
46174;BME280;31897;52.420;13.498;2023-07-24T01:17:03;100200;;;19.26351;27.90399
46174;BME280;31897;52.420;13.498;2023-07-24T01:20:07;100200;;;19.22021;27.91743
46174;BME280;31897;52.420;13.498;2023-07-24T01:23:14;100200;;;19.19308;27.96641
46174;BME280;31897;52.420;13.498;2023-07-24T01:26:22;100200;;;19.19922;27.87002
46174;BME280;31897;52.420;13.498;2023-07-24T01:29:23;100200;;;19.18435;27.82842
46174;BME280;31897;52.420;13.498;2023-07-24T01:32:24;100200;;;19.18823;27.79823
46174;BME280;31897;52.420;13.498;2023-07-24T01:35:25;100200;;;19.20406;27.81575
46174;BME280;31897;52.420;13.498;2023-07-24T01:38:27;100200;;;19.16206;27.7029
46174;BME280;31897;52.420;13.498;2023-07-24T01:41:28;100200;;;19.13686;27.82396
46174;BME280;31897;52.420;13.498;2023-07-24T01:44:29;100200;;;19.17466;27.84677
46174;BME280;31897;52.420;13.498;2023-07-24T01:47:30;100200;;;19.14591;27.84771
46174;BME280;31897;52.420;13.498;2023-07-24T01:50:31;100200;;;19.11522;27.84872
46174;BME280;31897;52.420;13.498;2023-07-24T01:53:32;100200;;;19.10003;27.80112
46174;BME280;31897;52.420;13.498;2023-07-24T01:56:35;100100;;;19.01183;27.87012
46174;BME280;31897;52.420;13.498;2023-07-24T01:59:36;100200;;;18.96983;27.85947
46174;BME280;31897;52.420;13.498;2023-07-24T02:02:37;100200;;;18.85611;28.01938
46174;BME280;31897;52.420;13.498;2023-07-24T02:05:37;100100;;;18.77308;28.22026
46174;BME280;31897;52.420;13.498;2023-07-24T02:08:38;100100;;;18.74239;28.33534
46174;BME280;31897;52.420;13.498;2023-07-24T02:11:39;100100;;;18.72753;28.4499
46174;BME280;31897;52.420;13.498;2023-07-24T02:14:40;100100;;;18.75855;28.527
46174;BME280;31897;52.420;13.498;2023-07-24T02:17:41;100100;;;18.7537;28.66527
46174;BME280;31897;52.420;13.498;2023-07-24T02:20:41;100100;;;18.76048;28.71911
46174;BME280;31897;52.420;13.498;2023-07-24T02:23:48;100100;;;18.7747;28.82076
46174;BME280;31897;52.420;13.498;2023-07-24T02:26:49;100100;;;18.79602;28.89217
46174;BME280;31897;52.420;13.498;2023-07-24T02:29:50;100100;;;18.85838;28.89028
46174;BME280;31897;52.420;13.498;2023-07-24T02:32:51;100100;;;18.81799;28.97558
46174;BME280;31897;52.420;13.498;2023-07-24T02:35:52;100100;;;18.8041;29.08409
46174;BME280;31897;52.420;13.498;2023-07-24T02:38:53;100100;;;18.7915;29.1265
46174;BME280;31897;52.420;13.498;2023-07-24T02:41:53;100100;;;18.83091;29.17337
46174;BME280;31897;52.420;13.498;2023-07-24T02:44:54;100100;;;18.84739;29.17888
46174;BME280;31897;52.420;13.498;2023-07-24T02:47:55;100100;;;18.83059;29.19741
46174;BME280;31897;52.420;13.498;2023-07-24T02:50:56;100100;;;18.79764;29.37851
46174;BME280;31897;52.420;13.498;2023-07-24T02:53:57;100100;;;18.79473;29.46265
46174;BME280;31897;52.420;13.498;2023-07-24T02:56:58;100100;;;18.80927;29.51026
46174;BME280;31897;52.420;13.498;2023-07-24T02:59:59;100200;;;18.79473;29.61275
46174;BME280;31897;52.420;13.498;2023-07-24T03:03:00;100200;;;18.75241;29.71001
46174;BME280;31897;52.420;13.498;2023-07-24T03:06:01;100200;;;18.76016;29.87188
46174;BME280;31897;52.420;13.498;2023-07-24T03:09:02;100200;;;18.7831;29.92526
46174;BME280;31897;52.420;13.498;2023-07-24T03:12:03;100200;;;18.76598;30.0458
46174;BME280;31897;52.420;13.498;2023-07-24T03:15:04;100200;;;18.71041;30.18538
46174;BME280;31897;52.420;13.498;2023-07-24T03:18:05;100200;;;18.71945;30.29917
46174;BME280;31897;52.420;13.498;2023-07-24T03:21:06;100200;;;18.67196;30.45048
46174;BME280;31897;52.420;13.498;2023-07-24T03:24:07;100200;;;18.66583;30.54065
46174;BME280;31897;52.420;13.498;2023-07-24T03:27:08;100200;;;18.70524;30.59361
46174;BME280;31897;52.420;13.498;2023-07-24T03:30:09;100200;;;18.69167;30.68998
46174;BME280;31897;52.420;13.498;2023-07-24T03:33:09;100200;;;18.69102;30.79801
46174;BME280;31897;52.420;13.498;2023-07-24T03:36:10;100200;;;18.69652;30.92387
46174;BME280;31897;52.420;13.498;2023-07-24T03:39:11;100200;;;18.73529;30.97088
46174;BME280;31897;52.420;13.498;2023-07-24T03:42:12;100200;;;18.75919;31.01227
46174;BME280;31897;52.420;13.498;2023-07-24T03:45:12;100200;;;18.74885;31.06655
46174;BME280;31897;52.420;13.498;2023-07-24T03:48:13;100200;;;18.71073;31.24152
46174;BME280;31897;52.420;13.498;2023-07-24T03:51:14;100200;;;18.67972;31.39228
46174;BME280;31897;52.420;13.498;2023-07-24T03:54:15;100200;;;18.75822;31.41434
46174;BME280;31897;52.420;13.498;2023-07-24T03:57:15;100200;;;18.78665;31.49763
46174;BME280;31897;52.420;13.498;2023-07-24T04:00:16;100200;;;18.76662;31.54614
46174;BME280;31897;52.420;13.498;2023-07-24T04:03:17;100200;;;18.75112;31.64851
46174;BME280;31897;52.420;13.498;2023-07-24T04:06:18;100200;;;18.78924;31.65959
46174;BME280;31897;52.420;13.498;2023-07-24T04:09:19;100200;;;18.79311;31.7495
46174;BME280;31897;52.420;13.498;2023-07-24T04:12:19;100200;;;18.77664;31.86989
46174;BME280;31897;52.420;13.498;2023-07-24T04:15:21;100200;;;18.76307;31.9602
46174;BME280;31897;52.420;13.498;2023-07-24T04:18:21;100200;;;18.75984;32.04427
46174;BME280;31897;52.420;13.498;2023-07-24T04:21:22;100200;;;18.77341;32.04996
46174;BME280;31897;52.420;13.498;2023-07-24T04:24:23;100200;;;18.76016;32.12825
46174;BME280;31897;52.420;13.498;2023-07-24T04:27:24;100200;;;18.79796;32.21134
46174;BME280;31897;52.420;13.498;2023-07-24T04:30:24;100200;;;18.84287;32.16834
46174;BME280;31897;52.420;13.498;2023-07-24T04:33:25;100200;;;18.9078;32.19084
46174;BME280;31897;52.420;13.498;2023-07-24T04:36:26;100200;;;18.98276;32.1171
46174;BME280;31897;52.420;13.498;2023-07-24T04:39:26;100200;;;19.06514;32.07316
46174;BME280;31897;52.420;13.498;2023-07-24T04:42:27;100200;;;19.1094;32.06012
46174;BME280;31897;52.420;13.498;2023-07-24T04:45:28;100200;;;19.1262;32.12577
46174;BME280;31897;52.420;13.498;2023-07-24T04:48:29;100200;;;19.0842;32.19278
46174;BME280;31897;52.420;13.498;2023-07-24T04:51:30;100100;;;19.10649;32.28832
46174;BME280;31897;52.420;13.498;2023-07-24T04:54:30;100100;;;19.21957;32.26172
46174;BME280;31897;52.420;13.498;2023-07-24T04:57:31;100100;;;19.32231;32.1152
46174;BME280;31897;52.420;13.498;2023-07-24T05:00:32;100200;;;19.29484;32.1759
46174;BME280;31897;52.420;13.498;2023-07-24T05:03:32;100100;;;19.26997;32.3026
46174;BME280;31897;52.420;13.498;2023-07-24T05:06:33;100200;;;19.3152;32.28354
46174;BME280;31897;52.420;13.498;2023-07-24T05:09:34;100100;;;19.44378;32.2085
46174;BME280;31897;52.420;13.498;2023-07-24T05:12:35;100100;;;19.59304;32.09084
46174;BME280;31897;52.420;13.498;2023-07-24T05:15:36;100100;;;19.69707;32.00424
46174;BME280;31897;52.420;13.498;2023-07-24T05:18:37;100100;;;19.77235;31.94834
46174;BME280;31897;52.420;13.498;2023-07-24T05:21:37;100100;;;19.70773;31.92583
46174;BME280;31897;52.420;13.498;2023-07-24T05:24:38;100100;;;19.74262;32.00917
46174;BME280;31897;52.420;13.498;2023-07-24T05:27:39;100100;;;19.76588;31.99058
46174;BME280;31897;52.420;13.498;2023-07-24T05:30:40;100100;;;19.84245;31.89856
46174;BME280;31897;52.420;13.498;2023-07-24T05:33:41;100100;;;19.79496;31.89368
46174;BME280;31897;52.420;13.498;2023-07-24T05:36:46;100100;;;19.81338;31.97141
46174;BME280;31897;52.420;13.498;2023-07-24T05:39:47;100100;;;20.28022;31.35223
46174;BME280;31897;52.420;13.498;2023-07-24T05:42:48;100100;;;20.42786;31.23405
46174;BME280;31897;52.420;13.498;2023-07-24T05:45:49;100100;;;20.43336;31.23993
46174;BME280;31897;52.420;13.498;2023-07-24T05:48:50;100100;;;20.61008;31.03656
46174;BME280;31897;52.420;13.498;2023-07-24T05:51:50;100100;;;20.55613;31.02592
46174;BME280;31897;52.420;13.498;2023-07-24T05:54:51;100100;;;20.53319;31.0205
46174;BME280;31897;52.420;13.498;2023-07-24T05:57:52;100100;;;20.46437;30.94399
46174;BME280;31897;52.420;13.498;2023-07-24T06:00:53;100100;;;20.52931;30.86396
46174;BME280;31897;52.420;13.498;2023-07-24T06:03:54;100100;;;20.65499;30.69791
46174;BME280;31897;52.420;13.498;2023-07-24T06:06:55;100100;;;20.71831;30.52743
46174;BME280;31897;52.420;13.498;2023-07-24T06:09:56;100100;;;20.77194;30.41142
46174;BME280;31897;52.420;13.498;2023-07-24T06:12:56;100100;;;20.86886;30.18563
46174;BME280;31897;52.420;13.498;2023-07-24T06:15:57;100100;;;21.02814;29.95793
46174;BME280;31897;52.420;13.498;2023-07-24T06:18:58;100100;;;21.13379;29.67127
46174;BME280;31897;52.420;13.498;2023-07-24T06:21:59;100100;;;21.24719;29.32385
46174;BME280;31897;52.420;13.498;2023-07-24T06:25:00;100100;;;21.32085;29.18879
46174;BME280;31897;52.420;13.498;2023-07-24T06:28:02;100100;;;21.34637;29.04307
46174;BME280;31897;52.420;13.498;2023-07-24T06:31:03;100100;;;21.36479;28.68017
46174;BME280;31897;52.420;13.498;2023-07-24T06:34:04;100100;;;21.42004;28.38847
46174;BME280;31897;52.420;13.498;2023-07-24T06:37:05;100100;;;21.48013;28.25965
46174;BME280;31897;52.420;13.498;2023-07-24T06:40:06;100100;;;21.6113;28.06197
46174;BME280;31897;52.420;13.498;2023-07-24T06:43:07;100100;;;21.66945;27.80616
46174;BME280;31897;52.420;13.498;2023-07-24T06:46:08;100000;;;21.75216;27.66431
46174;BME280;31897;52.420;13.498;2023-07-24T06:49:09;100000;;;21.81322;27.39009
46174;BME280;31897;52.420;13.498;2023-07-24T06:52:15;100000;;;21.87461;27.19441
46174;BME280;31897;52.420;13.498;2023-07-24T06:55:15;100000;;;22.06781;27.04237
46174;BME280;31897;52.420;13.498;2023-07-24T06:58:16;100000;;;22.28492;26.73191
46174;BME280;31897;52.420;13.498;2023-07-24T07:01:17;100000;;;22.43387;26.69017
46174;BME280;31897;52.420;13.498;2023-07-24T07:04:18;100000;;;22.49299;26.43352
46174;BME280;31897;52.420;13.498;2023-07-24T07:07:18;100000;;;22.74435;26.08473
46174;BME280;31897;52.420;13.498;2023-07-24T07:10:19;100000;;;22.78183;25.96209
46174;BME280;31897;52.420;13.498;2023-07-24T07:13:20;100000;;;23.03997;25.69744
46174;BME280;31897;52.420;13.498;2023-07-24T07:16:21;100000;;;24.4748;24.19256
46174;BME280;31897;52.420;13.498;2023-07-24T07:19:21;100000;;;25.0428;23.75376
46174;BME280;31897;52.420;13.498;2023-07-24T07:22:22;100000;;;24.49354;23.96662
46174;BME280;31897;52.420;13.498;2023-07-24T07:25:23;100000;;;24.00891;24.40089
46174;BME280;31897;52.420;13.498;2023-07-24T07:28:24;100000;;;23.65513;24.55548
46174;BME280;31897;52.420;13.498;2023-07-24T07:31:24;100000;;;23.44157;24.75263
46174;BME280;31897;52.420;13.498;2023-07-24T07:37:26;100000;;;23.45384;24.74606
46174;BME280;31897;52.420;13.498;2023-07-24T07:40:26;100000;;;23.49294;24.72623
46174;BME280;31897;52.420;13.498;2023-07-24T07:43:27;100000;;;23.67354;24.26299
46174;BME280;31897;52.420;13.498;2023-07-24T07:46:28;100000;;;23.49649;24.48916
46174;BME280;31897;52.420;13.498;2023-07-24T07:49:29;100000;;;23.42154;24.57124
46174;BME280;31897;52.420;13.498;2023-07-24T07:52:30;100000;;;23.40829;24.57783
46174;BME280;31897;52.420;13.498;2023-07-24T07:55:31;100000;;;23.41249;24.58376
46174;BME280;31897;52.420;13.498;2023-07-24T07:58:31;100000;;;23.40409;24.54766
46174;BME280;31897;52.420;13.498;2023-07-24T08:01:32;100000;;;23.37921;24.60335
46174;BME280;31897;52.420;13.498;2023-07-24T08:04:33;100000;;;23.50328;24.58608
46174;BME280;31897;52.420;13.498;2023-07-24T08:07:34;100000;;;23.59471;24.41215
46174;BME280;31897;52.420;13.498;2023-07-24T08:10:36;100000;;;23.9808;24.11621
46174;BME280;31897;52.420;13.498;2023-07-24T08:13:37;100000;;;24.10163;23.97722
46174;BME280;31897;52.420;13.498;2023-07-24T08:16:38;100000;;;24.18596;23.80929
46174;BME280;31897;52.420;13.498;2023-07-24T08:19:39;100000;;;24.02959;23.84039
46174;BME280;31897;52.420;13.498;2023-07-24T08:22:39;100000;;;24.15947;23.8287
46174;BME280;31897;52.420;13.498;2023-07-24T08:25:40;100000;;;24.18628;23.74842
46174;BME280;31897;52.420;13.498;2023-07-24T08:28:50;100000;;;24.23152;23.66733
46174;BME280;31897;52.420;13.498;2023-07-24T08:31:51;100000;;;24.2761;23.80539
46174;BME280;31897;52.420;13.498;2023-07-24T08:34:52;100000;;;24.19242;23.90638
46174;BME280;31897;52.420;13.498;2023-07-24T08:37:53;100000;;;24.20987;23.94823
46174;BME280;31897;52.420;13.498;2023-07-24T08:41:03;100000;;;24.22829;23.95353
46174;BME280;31897;52.420;13.498;2023-07-24T08:44:04;100000;;;24.22053;24.0208
46174;BME280;31897;52.420;13.498;2023-07-24T08:47:06;100000;;;24.2299;24.01432
46174;BME280;31897;52.420;13.498;2023-07-24T08:50:10;100000;;;24.18241;24.08933
46174;BME280;31897;52.420;13.498;2023-07-24T08:53:10;100000;;;24.19178;24.11331
46174;BME280;31897;52.420;13.498;2023-07-24T08:56:12;100000;;;24.36172;23.97214
46174;BME280;31897;52.420;13.498;2023-07-24T08:59:12;100000;;;24.3824;24.01386
46174;BME280;31897;52.420;13.498;2023-07-24T09:02:13;100000;;;24.54944;23.93361
46174;BME280;31897;52.420;13.498;2023-07-24T09:05:14;100000;;;24.6903;23.81787
46174;BME280;31897;52.420;13.498;2023-07-24T09:08:15;100000;;;24.76688;23.77189
46174;BME280;31897;52.420;13.498;2023-07-24T09:11:16;100000;;;24.92972;23.39903
46174;BME280;31897;52.420;13.498;2023-07-24T09:14:20;99900;;;25.01016;23.20034
46174;BME280;31897;52.420;13.498;2023-07-24T09:17:21;99900;;;25.08125;23.05078
46174;BME280;31897;52.420;13.498;2023-07-24T09:20:22;99900;;;25.18884;22.97881
46174;BME280;31897;52.420;13.498;2023-07-24T09:23:26;99900;;;25.32938;22.79544
46174;BME280;31897;52.420;13.498;2023-07-24T09:26:27;99900;;;25.44731;22.66796
46174;BME280;31897;52.420;13.498;2023-07-24T09:29:30;99900;;;25.4919;22.54378
46174;BME280;31897;52.420;13.498;2023-07-24T09:32:30;99900;;;25.4612;22.44143
46174;BME280;31897;52.420;13.498;2023-07-24T09:35:31;99900;;;25.39368;22.469
46174;BME280;31897;52.420;13.498;2023-07-24T09:38:33;99900;;;25.46799;22.32511
46174;BME280;31897;52.420;13.498;2023-07-24T09:41:34;99900;;;25.33423;22.47787
46174;BME280;31897;52.420;13.498;2023-07-24T09:44:34;99900;;;25.52518;22.3957
46174;BME280;31897;52.420;13.498;2023-07-24T09:47:35;99900;;;25.50579;22.35997
46174;BME280;31897;52.420;13.498;2023-07-24T09:50:36;99900;;;25.37203;22.41506
46174;BME280;31897;52.420;13.498;2023-07-24T09:53:38;99900;;;25.34424;22.52623
46174;BME280;31897;52.420;13.498;2023-07-24T09:56:39;99900;;;25.31387;22.49102
46174;BME280;31897;52.420;13.498;2023-07-24T09:59:41;99900;;;25.5171;22.09077
46174;BME280;31897;52.420;13.498;2023-07-24T10:02:42;99900;;;25.67832;21.97927
46174;BME280;31897;52.420;13.498;2023-07-24T10:05:42;99900;;;25.82178;21.87464
46174;BME280;31897;52.420;13.498;2023-07-24T10:08:44;99900;;;25.94423;21.7465
46174;BME280;31897;52.420;13.498;2023-07-24T10:11:45;99900;;;25.99269;21.628
46174;BME280;31897;52.420;13.498;2023-07-24T10:14:46;99900;;;26.16103;21.43021
46174;BME280;31897;52.420;13.498;2023-07-24T10:17:47;99900;;;26.28057;21.11844
46174;BME280;31897;52.420;13.498;2023-07-24T10:20:48;99900;;;26.425;20.78685
46174;BME280;31897;52.420;13.498;2023-07-24T10:23:48;99900;;;26.18461;20.79899
46174;BME280;31897;52.420;13.498;2023-07-24T10:26:49;99900;;;26.25795;20.728
46174;BME280;31897;52.420;13.498;2023-07-24T10:29:57;99900;;;26.29576;20.56698
46174;BME280;31897;52.420;13.498;2023-07-24T10:33:06;99900;;;26.09931;20.53419
46174;BME280;31897;52.420;13.498;2023-07-24T10:36:07;99900;;;26.01079;20.61209
46174;BME280;31897;52.420;13.498;2023-07-24T10:39:13;99900;;;26.48315;20.31858
46174;BME280;31897;52.420;13.498;2023-07-24T10:42:14;99800;;;26.78751;20.21713
46174;BME280;31897;52.420;13.498;2023-07-24T10:45:23;99800;;;26.96134;20.17132
46174;BME280;31897;52.420;13.498;2023-07-24T10:48:24;99800;;;27.18395;19.85923
46174;BME280;31897;52.420;13.498;2023-07-24T10:51:25;99800;;;27.32353;19.64327
46174;BME280;31897;52.420;13.498;2023-07-24T10:54:31;99800;;;27.27701;19.46786
46174;BME280;31897;52.420;13.498;2023-07-24T10:57:32;99800;;;27.22208;19.28066
46174;BME280;31897;52.420;13.498;2023-07-24T11:00:33;99800;;;27.30899;18.96918
46174;BME280;31897;52.420;13.498;2023-07-24T11:03:35;99800;;;27.29736;19.03118
46174;BME280;31897;52.420;13.498;2023-07-24T11:06:36;99800;;;27.27345;19.00794
46174;BME280;31897;52.420;13.498;2023-07-24T11:09:38;99800;;;27.37975;18.71983
46174;BME280;31897;52.420;13.498;2023-07-24T11:12:38;99800;;;27.48831;18.75064
46174;BME280;31897;52.420;13.498;2023-07-24T11:15:39;99800;;;27.52999;18.66852
46174;BME280;31897;52.420;13.498;2023-07-24T11:18:48;99800;;;27.51352;18.49754
46174;BME280;31897;52.420;13.498;2023-07-24T11:21:49;99700;;;27.5035;18.56563
46174;BME280;31897;52.420;13.498;2023-07-24T11:24:50;99700;;;27.60205;18.62768
46174;BME280;31897;52.420;13.498;2023-07-24T11:27:51;99700;;;27.77006;18.44632
46174;BME280;31897;52.420;13.498;2023-07-24T11:30:52;99700;;;27.70899;18.32691
46174;BME280;31897;52.420;13.498;2023-07-24T11:33:53;99700;;;27.60818;18.28346
46174;BME280;31897;52.420;13.498;2023-07-24T11:36:54;99700;;;27.66085;17.91811
46174;BME280;31897;52.420;13.498;2023-07-24T11:39:56;99700;;;27.7552;18.02329
46174;BME280;31897;52.420;13.498;2023-07-24T11:42:56;99700;;;27.8909;17.97253
46174;BME280;31897;52.420;13.498;2023-07-24T11:45:57;99700;;;27.95067;17.77243
46174;BME280;31897;52.420;13.498;2023-07-24T11:48:58;99700;;;28.18137;17.77142
46174;BME280;31897;52.420;13.498;2023-07-24T11:51:59;99700;;;28.45278;17.65729
46174;BME280;31897;52.420;13.498;2023-07-24T11:55:01;99700;;;28.22305;17.69521
46174;BME280;31897;52.420;13.498;2023-07-24T11:58:02;99700;;;28.00722;17.41262
46174;BME280;31897;52.420;13.498;2023-07-24T12:01:03;99700;;;27.88282;17.5551
46174;BME280;31897;52.420;13.498;2023-07-24T12:04:03;99700;;;27.87959;17.48768
46174;BME280;31897;52.420;13.498;2023-07-24T12:07:07;99700;;;28.12256;17.37513
46174;BME280;31897;52.420;13.498;2023-07-24T12:10:08;99700;;;28.32483;17.27099
46174;BME280;31897;52.420;13.498;2023-07-24T12:13:08;99700;;;28.17135;17.0586
46174;BME280;31897;52.420;13.498;2023-07-24T12:16:09;99700;;;28.06344;17.18181
46174;BME280;31897;52.420;13.498;2023-07-24T12:19:10;99700;;;28.03565;17.11583
46174;BME280;31897;52.420;13.498;2023-07-24T12:22:11;99700;;;27.82046;17.21458
46174;BME280;31897;52.420;13.498;2023-07-24T12:25:12;99700;;;27.47281;17.33327
46174;BME280;31897;52.420;13.498;2023-07-24T12:28:12;99700;;;27.22176;17.50137
46174;BME280;31897;52.420;13.498;2023-07-24T12:31:13;99700;;;27.0014;17.60002
46174;BME280;31897;52.420;13.498;2023-07-24T12:34:14;99700;;;26.81465;17.84379
46174;BME280;31897;52.420;13.498;2023-07-24T12:37:15;99800;;;26.61045;18.22314
46174;BME280;31897;52.420;13.498;2023-07-24T12:40:16;99700;;;26.45601;18.5381
46174;BME280;31897;52.420;13.498;2023-07-24T12:43:16;99700;;;26.44891;18.67324
46174;BME280;31897;52.420;13.498;2023-07-24T12:46:17;99700;;;26.47766;18.81865
46174;BME280;31897;52.420;13.498;2023-07-24T12:49:18;99700;;;26.55359;18.89411
46174;BME280;31897;52.420;13.498;2023-07-24T12:52:19;99700;;;27.10544;18.61848
46174;BME280;31897;52.420;13.498;2023-07-24T12:55:19;99700;;;27.56198;18.47027
46174;BME280;31897;52.420;13.498;2023-07-24T12:58:20;99700;;;27.9384;18.21564
46174;BME280;31897;52.420;13.498;2023-07-24T13:01:21;99700;;;27.80883;18.17997
46174;BME280;31897;52.420;13.498;2023-07-24T13:04:22;99700;;;27.56037;18.64842
46174;BME280;31897;52.420;13.498;2023-07-24T13:07:23;99700;;;27.17911;19.30752
46174;BME280;31897;52.420;13.498;2023-07-24T13:10:23;99700;;;26.83565;19.74893
46174;BME280;31897;52.420;13.498;2023-07-24T13:13:24;99700;;;26.70544;20.04988
46174;BME280;31897;52.420;13.498;2023-07-24T13:16:25;99700;;;26.73517;20.21985
46174;BME280;31897;52.420;13.498;2023-07-24T13:19:28;99700;;;26.98719;20.20062
46174;BME280;31897;52.420;13.498;2023-07-24T13:22:28;99700;;;27.27668;20.13646
46174;BME280;31897;52.420;13.498;2023-07-24T13:25:29;99700;;;27.61432;20.14333
46174;BME280;31897;52.420;13.498;2023-07-24T13:28:30;99700;;;28.09348;20.01373
46174;BME280;31897;52.420;13.498;2023-07-24T13:31:31;99700;;;28.44437;20.00747
46174;BME280;31897;52.420;13.498;2023-07-24T13:34:32;99700;;;28.6405;19.97248
46174;BME280;31897;52.420;13.498;2023-07-24T13:37:32;99700;;;28.6056;20.0666
46174;BME280;31897;52.420;13.498;2023-07-24T13:40:33;99700;;;28.7468;20.03452
46174;BME280;31897;52.420;13.498;2023-07-24T13:43:34;99700;;;28.53291;20.07659
46174;BME280;31897;52.420;13.498;2023-07-24T13:46:35;99700;;;28.18331;20.20564
46174;BME280;31897;52.420;13.498;2023-07-24T13:49:36;99700;;;27.82208;20.35349
46174;BME280;31897;52.420;13.498;2023-07-24T13:52:36;99700;;;27.4518;20.5813
46174;BME280;31897;52.420;13.498;2023-07-24T13:55:37;99700;;;27.26925;20.78078
46174;BME280;31897;52.420;13.498;2023-07-24T13:58:38;99700;;;27.16425;20.84743
46174;BME280;31897;52.420;13.498;2023-07-24T14:01:39;99700;;;27.02984;21.10549
46174;BME280;31897;52.420;13.498;2023-07-24T14:04:40;99700;;;26.98654;21.25472
46174;BME280;31897;52.420;13.498;2023-07-24T14:07:41;99700;;;26.92774;21.26377
46174;BME280;31897;52.420;13.498;2023-07-24T14:10:41;99700;;;26.85859;21.46935
46174;BME280;31897;52.420;13.498;2023-07-24T14:13:42;99700;;;26.82919;21.50142
46174;BME280;31897;52.420;13.498;2023-07-24T14:16:43;99700;;;26.7636;21.55364
46174;BME280;31897;52.420;13.498;2023-07-24T14:19:44;99700;;;26.60173;21.79419
46174;BME280;31897;52.420;13.498;2023-07-24T14:22:44;99700;;;26.45537;21.99709
46174;BME280;31897;52.420;13.498;2023-07-24T14:25:45;99700;;;26.34325;22.18598
46174;BME280;31897;52.420;13.498;2023-07-24T14:28:46;99700;;;26.3019;22.32251
46174;BME280;31897;52.420;13.498;2023-07-24T14:31:47;99700;;;26.34713;22.35709
46174;BME280;31897;52.420;13.498;2023-07-24T14:34:49;99700;;;26.39947;22.4219
46174;BME280;31897;52.420;13.498;2023-07-24T14:37:50;99600;;;26.50609;22.41688
46174;BME280;31897;52.420;13.498;2023-07-24T14:40:51;99600;;;26.54422;22.43345
46174;BME280;31897;52.420;13.498;2023-07-24T14:43:53;99600;;;26.4153;22.53127
46174;BME280;31897;52.420;13.498;2023-07-24T14:46:53;99600;;;26.31773;22.6337
46174;BME280;31897;52.420;13.498;2023-07-24T14:49:54;99600;;;26.29511;22.70202
46174;BME280;31897;52.420;13.498;2023-07-24T14:52:55;99600;;;26.34551;22.77919
46174;BME280;31897;52.420;13.498;2023-07-24T14:55:56;99600;;;26.45214;22.59073
46174;BME280;31897;52.420;13.498;2023-07-24T14:58:57;99600;;;26.47863;22.28968
46174;BME280;31897;52.420;13.498;2023-07-24T15:01:57;99600;;;26.467;22.24741
46174;BME280;31897;52.420;13.498;2023-07-24T15:04:58;99600;;;26.41369;22.03583
46174;BME280;31897;52.420;13.498;2023-07-24T15:07:59;99600;;;26.27508;21.97515
46174;BME280;31897;52.420;13.498;2023-07-24T15:11:00;99600;;;26.12387;21.95182